sensor_id;sensor_type;location;lat;lon;timestamp;P1;durP1;ratioP1;P2;durP2;ratioP2
80315;SDS011;71201;47.064;15.448;2024-02-26T00:09:42;8.77;;;2.88;;
80315;SDS011;71201;47.064;15.448;2024-02-26T00:24:35;6.10;;;2.80;;
80315;SDS011;71201;47.064;15.448;2024-02-26T00:46:53;5.90;;;2.10;;
80315;SDS011;71201;47.064;15.448;2024-02-26T00:54:04;6.97;;;2.50;;
80315;SDS011;71201;47.064;15.448;2024-02-26T01:01:25;4.15;;;2.45;;
80315;SDS011;71201;47.064;15.448;2024-02-26T01:06:36;4.47;;;2.20;;
80315;SDS011;71201;47.064;15.448;2024-02-26T01:24:05;4.63;;;2.10;;
80315;SDS011;71201;47.064;15.448;2024-02-26T01:29:00;4.40;;;1.83;;
80315;SDS011;71201;47.064;15.448;2024-02-26T01:35:58;6.65;;;1.92;;
80315;SDS011;71201;47.064;15.448;2024-02-26T01:46:02;8.00;;;2.35;;
80315;SDS011;71201;47.064;15.448;2024-02-26T01:53:04;6.23;;;2.30;;
80315;SDS011;71201;47.064;15.448;2024-02-26T01:57:59;5.80;;;2.05;;
80315;SDS011;71201;47.064;15.448;2024-02-26T02:07:53;6.47;;;2.35;;
80315;SDS011;71201;47.064;15.448;2024-02-26T02:15:17;5.88;;;2.00;;
80315;SDS011;71201;47.064;15.448;2024-02-26T02:37:02;4.53;;;1.77;;
80315;SDS011;71201;47.064;15.448;2024-02-26T02:44:15;4.13;;;1.92;;
80315;SDS011;71201;47.064;15.448;2024-02-26T02:59:19;6.82;;;2.50;;
80315;SDS011;71201;47.064;15.448;2024-02-26T03:11:51;4.55;;;1.90;;
80315;SDS011;71201;47.064;15.448;2024-02-26T03:21:06;3.85;;;1.90;;
80315;SDS011;71201;47.064;15.448;2024-02-26T03:28:36;2.40;;;1.48;;
80315;SDS011;71201;47.064;15.448;2024-02-26T03:33:26;2.47;;;1.27;;
80315;SDS011;71201;47.064;15.448;2024-02-26T03:50:26;3.95;;;1.45;;
80315;SDS011;71201;47.064;15.448;2024-02-26T04:17:47;4.82;;;1.55;;
80315;SDS011;71201;47.064;15.448;2024-02-26T04:20:13;3.92;;;1.50;;
80315;SDS011;71201;47.064;15.448;2024-02-26T04:22:39;4.72;;;1.80;;
80315;SDS011;71201;47.064;15.448;2024-02-26T04:25:04;6.25;;;2.00;;
80315;SDS011;71201;47.064;15.448;2024-02-26T04:27:29;4.20;;;2.00;;
80315;SDS011;71201;47.064;15.448;2024-02-26T04:29:55;4.90;;;1.70;;
80315;SDS011;71201;47.064;15.448;2024-02-26T04:32:20;4.27;;;1.70;;
80315;SDS011;71201;47.064;15.448;2024-02-26T04:34:45;3.95;;;2.17;;
80315;SDS011;71201;47.064;15.448;2024-02-26T04:37:11;4.15;;;1.80;;
80315;SDS011;71201;47.064;15.448;2024-02-26T04:39:36;4.53;;;1.60;;
80315;SDS011;71201;47.064;15.448;2024-02-26T04:42:01;3.40;;;1.70;;
80315;SDS011;71201;47.064;15.448;2024-02-26T04:44:28;4.25;;;1.85;;
80315;SDS011;71201;47.064;15.448;2024-02-26T04:46:54;3.47;;;1.90;;
80315;SDS011;71201;47.064;15.448;2024-02-26T04:49:19;6.47;;;2.20;;
80315;SDS011;71201;47.064;15.448;2024-02-26T04:51:44;5.00;;;2.30;;
80315;SDS011;71201;47.064;15.448;2024-02-26T04:54:10;6.23;;;2.57;;
80315;SDS011;71201;47.064;15.448;2024-02-26T04:56:35;5.37;;;2.17;;
80315;SDS011;71201;47.064;15.448;2024-02-26T04:59:00;7.35;;;2.05;;
80315;SDS011;71201;47.064;15.448;2024-02-26T05:01:25;6.77;;;2.00;;
80315;SDS011;71201;47.064;15.448;2024-02-26T05:03:51;4.25;;;2.00;;
80315;SDS011;71201;47.064;15.448;2024-02-26T05:06:16;4.80;;;2.33;;
80315;SDS011;71201;47.064;15.448;2024-02-26T05:08:42;6.80;;;2.00;;
80315;SDS011;71201;47.064;15.448;2024-02-26T05:11:08;3.55;;;1.90;;
80315;SDS011;71201;47.064;15.448;2024-02-26T05:13:34;7.23;;;2.27;;
80315;SDS011;71201;47.064;15.448;2024-02-26T05:15:59;5.72;;;2.20;;
80315;SDS011;71201;47.064;15.448;2024-02-26T05:18:25;5.15;;;2.35;;
80315;SDS011;71201;47.064;15.448;2024-02-26T05:20:50;7.00;;;2.30;;
80315;SDS011;71201;47.064;15.448;2024-02-26T05:23:16;5.35;;;2.47;;
80315;SDS011;71201;47.064;15.448;2024-02-26T05:25:41;5.85;;;2.30;;
80315;SDS011;71201;47.064;15.448;2024-02-26T05:28:06;5.38;;;2.35;;
80315;SDS011;71201;47.064;15.448;2024-02-26T05:30:32;8.55;;;3.13;;
80315;SDS011;71201;47.064;15.448;2024-02-26T05:32:57;8.45;;;2.53;;
80315;SDS011;71201;47.064;15.448;2024-02-26T05:35:23;8.33;;;2.33;;
80315;SDS011;71201;47.064;15.448;2024-02-26T05:37:48;6.47;;;2.88;;
80315;SDS011;71201;47.064;15.448;2024-02-26T05:40:14;6.43;;;2.23;;
80315;SDS011;71201;47.064;15.448;2024-02-26T05:42:39;6.80;;;2.25;;
80315;SDS011;71201;47.064;15.448;2024-02-26T05:45:05;4.82;;;2.10;;
80315;SDS011;71201;47.064;15.448;2024-02-26T05:47:34;4.00;;;1.67;;
80315;SDS011;71201;47.064;15.448;2024-02-26T05:49:59;9.23;;;2.50;;
80315;SDS011;71201;47.064;15.448;2024-02-26T05:52:25;4.03;;;1.95;;
80315;SDS011;71201;47.064;15.448;2024-02-26T05:54:51;3.10;;;1.70;;
80315;SDS011;71201;47.064;15.448;2024-02-26T05:57:16;7.10;;;2.20;;
80315;SDS011;71201;47.064;15.448;2024-02-26T05:59:43;3.58;;;1.92;;
80315;SDS011;71201;47.064;15.448;2024-02-26T06:02:09;3.72;;;1.95;;
80315;SDS011;71201;47.064;15.448;2024-02-26T06:04:34;5.20;;;1.50;;
80315;SDS011;71201;47.064;15.448;2024-02-26T06:06:59;5.40;;;1.50;;
80315;SDS011;71201;47.064;15.448;2024-02-26T06:09:26;6.57;;;1.45;;
80315;SDS011;71201;47.064;15.448;2024-02-26T06:11:51;5.13;;;2.05;;
80315;SDS011;71201;47.064;15.448;2024-02-26T06:14:16;3.17;;;1.70;;
80315;SDS011;71201;47.064;15.448;2024-02-26T06:16:43;2.75;;;1.65;;
80315;SDS011;71201;47.064;15.448;2024-02-26T06:19:09;10.25;;;2.00;;
80315;SDS011;71201;47.064;15.448;2024-02-26T06:21:34;8.83;;;3.33;;
80315;SDS011;71201;47.064;15.448;2024-02-26T06:24:00;9.30;;;2.13;;
80315;SDS011;71201;47.064;15.448;2024-02-26T06:26:25;3.63;;;1.70;;
80315;SDS011;71201;47.064;15.448;2024-02-26T06:28:53;5.43;;;2.05;;
80315;SDS011;71201;47.064;15.448;2024-02-26T06:31:19;8.18;;;2.22;;
80315;SDS011;71201;47.064;15.448;2024-02-26T06:33:46;6.05;;;2.00;;
80315;SDS011;71201;47.064;15.448;2024-02-26T06:36:11;8.52;;;2.03;;
80315;SDS011;71201;47.064;15.448;2024-02-26T06:38:37;5.32;;;2.40;;
80315;SDS011;71201;47.064;15.448;2024-02-26T06:41:02;5.70;;;2.27;;
80315;SDS011;71201;47.064;15.448;2024-02-26T06:43:28;5.35;;;1.90;;
80315;SDS011;71201;47.064;15.448;2024-02-26T06:45:53;5.35;;;2.00;;
80315;SDS011;71201;47.064;15.448;2024-02-26T06:48:19;7.40;;;3.00;;
80315;SDS011;71201;47.064;15.448;2024-02-26T06:50:44;5.43;;;2.00;;
80315;SDS011;71201;47.064;15.448;2024-02-26T06:53:10;4.80;;;2.57;;
80315;SDS011;71201;47.064;15.448;2024-02-26T06:55:35;5.35;;;2.15;;
80315;SDS011;71201;47.064;15.448;2024-02-26T06:58:02;6.20;;;2.13;;
80315;SDS011;71201;47.064;15.448;2024-02-26T07:00:27;6.60;;;2.38;;
80315;SDS011;71201;47.064;15.448;2024-02-26T07:02:53;10.32;;;2.67;;
80315;SDS011;71201;47.064;15.448;2024-02-26T07:05:18;4.32;;;2.15;;
80315;SDS011;71201;47.064;15.448;2024-02-26T07:07:43;7.00;;;2.83;;
80315;SDS011;71201;47.064;15.448;2024-02-26T07:10:09;5.30;;;2.08;;
80315;SDS011;71201;47.064;15.448;2024-02-26T07:12:34;5.93;;;2.33;;
80315;SDS011;71201;47.064;15.448;2024-02-26T07:15:00;7.23;;;2.73;;
80315;SDS011;71201;47.064;15.448;2024-02-26T07:17:25;13.15;;;2.65;;
80315;SDS011;71201;47.064;15.448;2024-02-26T07:19:50;7.47;;;2.87;;
80315;SDS011;71201;47.064;15.448;2024-02-26T07:22:16;6.65;;;1.92;;
80315;SDS011;71201;47.064;15.448;2024-02-26T07:24:42;6.53;;;2.60;;
80315;SDS011;71201;47.064;15.448;2024-02-26T07:27:07;11.38;;;3.00;;
80315;SDS011;71201;47.064;15.448;2024-02-26T07:29:32;8.60;;;2.78;;
80315;SDS011;71201;47.064;15.448;2024-02-26T07:31:58;6.68;;;2.70;;
80315;SDS011;71201;47.064;15.448;2024-02-26T07:34:23;7.50;;;2.28;;
80315;SDS011;71201;47.064;15.448;2024-02-26T07:36:54;13.38;;;3.20;;
80315;SDS011;71201;47.064;15.448;2024-02-26T07:39:19;10.95;;;2.85;;
80315;SDS011;71201;47.064;15.448;2024-02-26T07:41:44;13.37;;;2.77;;
80315;SDS011;71201;47.064;15.448;2024-02-26T07:44:12;14.73;;;4.03;;
80315;SDS011;71201;47.064;15.448;2024-02-26T07:46:37;10.95;;;2.75;;
80315;SDS011;71201;47.064;15.448;2024-02-26T07:49:02;18.87;;;2.93;;
80315;SDS011;71201;47.064;15.448;2024-02-26T07:51:27;16.43;;;3.87;;
80315;SDS011;71201;47.064;15.448;2024-02-26T07:53:53;23.17;;;3.97;;
80315;SDS011;71201;47.064;15.448;2024-02-26T07:56:18;21.63;;;3.67;;
80315;SDS011;71201;47.064;15.448;2024-02-26T07:58:44;26.45;;;3.63;;
80315;SDS011;71201;47.064;15.448;2024-02-26T08:01:09;27.95;;;3.55;;
80315;SDS011;71201;47.064;15.448;2024-02-26T08:03:38;22.98;;;3.97;;
80315;SDS011;71201;47.064;15.448;2024-02-26T08:06:03;23.88;;;3.30;;
80315;SDS011;71201;47.064;15.448;2024-02-26T08:08:28;18.58;;;3.97;;
80315;SDS011;71201;47.064;15.448;2024-02-26T08:10:54;14.97;;;3.73;;
80315;SDS011;71201;47.064;15.448;2024-02-26T08:13:19;14.40;;;2.43;;
80315;SDS011;71201;47.064;15.448;2024-02-26T08:15:44;15.40;;;2.30;;
80315;SDS011;71201;47.064;15.448;2024-02-26T08:18:09;7.47;;;2.05;;
80315;SDS011;71201;47.064;15.448;2024-02-26T08:20:35;14.43;;;2.05;;
80315;SDS011;71201;47.064;15.448;2024-02-26T08:23:00;11.32;;;2.42;;
80315;SDS011;71201;47.064;15.448;2024-02-26T08:25:25;10.50;;;2.30;;
80315;SDS011;71201;47.064;15.448;2024-02-26T08:27:51;7.65;;;2.00;;
80315;SDS011;71201;47.064;15.448;2024-02-26T08:30:16;3.40;;;1.77;;
80315;SDS011;71201;47.064;15.448;2024-02-26T08:32:45;3.00;;;1.58;;
80315;SDS011;71201;47.064;15.448;2024-02-26T08:35:11;4.55;;;1.63;;
80315;SDS011;71201;47.064;15.448;2024-02-26T08:37:36;6.03;;;2.28;;
80315;SDS011;71201;47.064;15.448;2024-02-26T08:40:01;5.90;;;2.58;;
80315;SDS011;71201;47.064;15.448;2024-02-26T08:42:29;5.15;;;2.35;;
80315;SDS011;71201;47.064;15.448;2024-02-26T08:44:54;5.82;;;1.75;;
80315;SDS011;71201;47.064;15.448;2024-02-26T08:47:19;4.97;;;2.10;;
80315;SDS011;71201;47.064;15.448;2024-02-26T08:49:45;4.93;;;1.77;;
80315;SDS011;71201;47.064;15.448;2024-02-26T08:52:10;4.25;;;1.63;;
80315;SDS011;71201;47.064;15.448;2024-02-26T08:54:36;3.75;;;1.63;;
80315;SDS011;71201;47.064;15.448;2024-02-26T08:57:01;3.83;;;1.80;;
80315;SDS011;71201;47.064;15.448;2024-02-26T08:59:26;5.03;;;2.00;;
80315;SDS011;71201;47.064;15.448;2024-02-26T09:01:51;8.10;;;2.17;;
80315;SDS011;71201;47.064;15.448;2024-02-26T09:04:17;4.67;;;1.80;;
80315;SDS011;71201;47.064;15.448;2024-02-26T09:06:42;5.90;;;2.60;;
80315;SDS011;71201;47.064;15.448;2024-02-26T09:09:07;7.27;;;2.00;;
80315;SDS011;71201;47.064;15.448;2024-02-26T09:11:32;8.98;;;2.08;;
80315;SDS011;71201;47.064;15.448;2024-02-26T09:13:58;5.00;;;2.10;;
80315;SDS011;71201;47.064;15.448;2024-02-26T09:16:24;5.93;;;1.90;;
80315;SDS011;71201;47.064;15.448;2024-02-26T09:18:49;3.72;;;2.22;;
80315;SDS011;71201;47.064;15.448;2024-02-26T09:21:14;7.80;;;2.50;;
80315;SDS011;71201;47.064;15.448;2024-02-26T09:23:41;9.88;;;1.92;;
80315;SDS011;71201;47.064;15.448;2024-02-26T09:26:06;3.63;;;2.03;;
80315;SDS011;71201;47.064;15.448;2024-02-26T09:28:31;4.45;;;1.70;;
80315;SDS011;71201;47.064;15.448;2024-02-26T09:31:02;3.08;;;1.63;;
80315;SDS011;71201;47.064;15.448;2024-02-26T09:33:27;3.33;;;1.42;;
80315;SDS011;71201;47.064;15.448;2024-02-26T09:35:52;4.57;;;1.60;;
80315;SDS011;71201;47.064;15.448;2024-02-26T09:38:18;4.45;;;1.40;;
80315;SDS011;71201;47.064;15.448;2024-02-26T09:40:43;3.43;;;1.47;;
80315;SDS011;71201;47.064;15.448;2024-02-26T09:43:08;6.67;;;1.60;;
80315;SDS011;71201;47.064;15.448;2024-02-26T09:45:35;5.10;;;1.67;;
80315;SDS011;71201;47.064;15.448;2024-02-26T09:48:00;5.27;;;1.63;;
80315;SDS011;71201;47.064;15.448;2024-02-26T09:50:27;2.63;;;1.40;;
80315;SDS011;71201;47.064;15.448;2024-02-26T09:52:53;5.57;;;1.63;;
80315;SDS011;71201;47.064;15.448;2024-02-26T09:55:19;3.90;;;1.30;;
80315;SDS011;71201;47.064;15.448;2024-02-26T09:57:45;4.40;;;1.38;;
80315;SDS011;71201;47.064;15.448;2024-02-26T10:00:11;5.32;;;1.50;;
80315;SDS011;71201;47.064;15.448;2024-02-26T10:02:39;5.60;;;2.00;;
80315;SDS011;71201;47.064;15.448;2024-02-26T10:05:05;4.30;;;1.77;;
80315;SDS011;71201;47.064;15.448;2024-02-26T10:07:31;4.95;;;1.63;;
80315;SDS011;71201;47.064;15.448;2024-02-26T10:09:57;5.97;;;2.15;;
80315;SDS011;71201;47.064;15.448;2024-02-26T10:12:22;7.25;;;1.92;;
80315;SDS011;71201;47.064;15.448;2024-02-26T10:14:48;3.55;;;1.23;;
80315;SDS011;71201;47.064;15.448;2024-02-26T10:17:13;4.50;;;1.30;;
80315;SDS011;71201;47.064;15.448;2024-02-26T10:19:39;4.88;;;1.30;;
80315;SDS011;71201;47.064;15.448;2024-02-26T10:22:04;3.78;;;1.10;;
80315;SDS011;71201;47.064;15.448;2024-02-26T10:24:30;2.20;;;1.02;;
80315;SDS011;71201;47.064;15.448;2024-02-26T10:26:56;4.53;;;1.00;;
80315;SDS011;71201;47.064;15.448;2024-02-26T10:29:21;6.38;;;1.15;;
80315;SDS011;71201;47.064;15.448;2024-02-26T10:31:47;3.50;;;1.10;;
80315;SDS011;71201;47.064;15.448;2024-02-26T10:34:12;2.07;;;0.67;;
80315;SDS011;71201;47.064;15.448;2024-02-26T10:36:38;1.67;;;0.60;;
80315;SDS011;71201;47.064;15.448;2024-02-26T10:39:06;2.17;;;0.80;;
80315;SDS011;71201;47.064;15.448;2024-02-26T10:41:32;1.58;;;0.68;;
80315;SDS011;71201;47.064;15.448;2024-02-26T10:43:58;4.45;;;1.02;;
80315;SDS011;71201;47.064;15.448;2024-02-26T10:46:23;2.10;;;0.97;;
80315;SDS011;71201;47.064;15.448;2024-02-26T10:48:50;2.58;;;0.70;;
80315;SDS011;71201;47.064;15.448;2024-02-26T10:51:16;4.22;;;1.00;;
80315;SDS011;71201;47.064;15.448;2024-02-26T10:53:43;2.47;;;0.75;;
80315;SDS011;71201;47.064;15.448;2024-02-26T10:56:10;4.63;;;1.10;;
80315;SDS011;71201;47.064;15.448;2024-02-26T10:58:36;1.67;;;0.70;;
80315;SDS011;71201;47.064;15.448;2024-02-26T11:01:02;2.33;;;0.82;;
80315;SDS011;71201;47.064;15.448;2024-02-26T11:03:28;2.75;;;0.60;;
80315;SDS011;71201;47.064;15.448;2024-02-26T11:05:57;3.03;;;0.52;;
80315;SDS011;71201;47.064;15.448;2024-02-26T11:08:23;1.48;;;0.50;;
80315;SDS011;71201;47.064;15.448;2024-02-26T11:10:50;1.85;;;0.70;;
80315;SDS011;71201;47.064;15.448;2024-02-26T11:13:17;1.83;;;0.65;;
80315;SDS011;71201;47.064;15.448;2024-02-26T11:15:43;1.77;;;0.70;;
80315;SDS011;71201;47.064;15.448;2024-02-26T11:18:09;2.83;;;0.70;;
80315;SDS011;71201;47.064;15.448;2024-02-26T11:20:38;2.67;;;0.60;;
80315;SDS011;71201;47.064;15.448;2024-02-26T11:23:03;3.22;;;0.90;;
80315;SDS011;71201;47.064;15.448;2024-02-26T11:25:29;1.67;;;0.40;;
80315;SDS011;71201;47.064;15.448;2024-02-26T11:27:55;1.88;;;0.60;;
80315;SDS011;71201;47.064;15.448;2024-02-26T11:30:23;2.15;;;0.60;;
80315;SDS011;71201;47.064;15.448;2024-02-26T11:32:49;1.40;;;0.57;;
80315;SDS011;71201;47.064;15.448;2024-02-26T11:35:15;3.22;;;0.82;;
80315;SDS011;71201;47.064;15.448;2024-02-26T11:37:50;2.47;;;0.90;;
80315;SDS011;71201;47.064;15.448;2024-02-26T11:40:16;3.28;;;1.02;;
80315;SDS011;71201;47.064;15.448;2024-02-26T11:42:43;2.50;;;0.85;;
80315;SDS011;71201;47.064;15.448;2024-02-26T11:45:38;5.20;;;1.10;;
80315;SDS011;71201;47.064;15.448;2024-02-26T11:47:57;3.70;;;1.10;;
80315;SDS011;71201;47.064;15.448;2024-02-26T11:50:35;4.13;;;1.08;;
80315;SDS011;71201;47.064;15.448;2024-02-26T11:55:45;4.70;;;1.27;;
80315;SDS011;71201;47.064;15.448;2024-02-26T11:58:10;3.00;;;1.00;;
80315;SDS011;71201;47.064;15.448;2024-02-26T12:00:35;3.30;;;1.15;;
80315;SDS011;71201;47.064;15.448;2024-02-26T12:03:00;2.20;;;0.80;;
80315;SDS011;71201;47.064;15.448;2024-02-26T12:05:30;2.72;;;1.10;;
80315;SDS011;71201;47.064;15.448;2024-02-26T12:08:02;3.95;;;1.33;;
80315;SDS011;71201;47.064;15.448;2024-02-26T12:10:38;3.22;;;0.90;;
80315;SDS011;71201;47.064;15.448;2024-02-26T12:13:07;3.72;;;1.40;;
80315;SDS011;71201;47.064;15.448;2024-02-26T12:15:33;2.45;;;1.02;;
80315;SDS011;71201;47.064;15.448;2024-02-26T12:18:02;2.28;;;1.10;;
80315;SDS011;71201;47.064;15.448;2024-02-26T12:20:28;6.55;;;1.30;;
80315;SDS011;71201;47.064;15.448;2024-02-26T12:22:53;2.75;;;0.90;;
80315;SDS011;71201;47.064;15.448;2024-02-26T12:25:22;3.92;;;1.10;;
80315;SDS011;71201;47.064;15.448;2024-02-26T12:27:48;2.40;;;0.98;;
80315;SDS011;71201;47.064;15.448;2024-02-26T12:30:13;3.53;;;1.10;;
80315;SDS011;71201;47.064;15.448;2024-02-26T12:32:38;2.35;;;0.80;;
80315;SDS011;71201;47.064;15.448;2024-02-26T12:35:05;4.32;;;1.00;;
80315;SDS011;71201;47.064;15.448;2024-02-26T12:37:30;2.20;;;0.88;;
80315;SDS011;71201;47.064;15.448;2024-02-26T12:39:55;3.38;;;1.15;;
80315;SDS011;71201;47.064;15.448;2024-02-26T12:42:21;3.97;;;1.40;;
80315;SDS011;71201;47.064;15.448;2024-02-26T12:44:46;2.72;;;1.02;;
80315;SDS011;71201;47.064;15.448;2024-02-26T12:47:11;3.37;;;1.00;;
80315;SDS011;71201;47.064;15.448;2024-02-26T12:49:42;5.30;;;1.10;;
80315;SDS011;71201;47.064;15.448;2024-02-26T12:52:07;2.42;;;0.90;;
80315;SDS011;71201;47.064;15.448;2024-02-26T12:54:33;3.08;;;1.20;;
80315;SDS011;71201;47.064;15.448;2024-02-26T12:56:59;1.75;;;1.05;;
80315;SDS011;71201;47.064;15.448;2024-02-26T12:59:25;4.70;;;1.15;;
80315;SDS011;71201;47.064;15.448;2024-02-26T13:01:51;4.43;;;0.80;;
80315;SDS011;71201;47.064;15.448;2024-02-26T13:04:16;7.00;;;1.25;;
80315;SDS011;71201;47.064;15.448;2024-02-26T13:06:42;2.17;;;0.93;;
80315;SDS011;71201;47.064;15.448;2024-02-26T13:09:08;2.25;;;1.05;;
80315;SDS011;71201;47.064;15.448;2024-02-26T13:11:34;4.25;;;1.10;;
80315;SDS011;71201;47.064;15.448;2024-02-26T13:13:59;7.55;;;0.93;;
80315;SDS011;71201;47.064;15.448;2024-02-26T13:16:25;3.20;;;0.90;;
80315;SDS011;71201;47.064;15.448;2024-02-26T13:18:50;2.72;;;0.90;;
80315;SDS011;71201;47.064;15.448;2024-02-26T13:21:15;3.35;;;1.02;;
80315;SDS011;71201;47.064;15.448;2024-02-26T13:23:43;2.28;;;0.80;;
80315;SDS011;71201;47.064;15.448;2024-02-26T13:26:08;5.32;;;1.38;;
80315;SDS011;71201;47.064;15.448;2024-02-26T13:28:36;2.95;;;0.88;;
80315;SDS011;71201;47.064;15.448;2024-02-26T13:31:02;3.08;;;0.70;;
80315;SDS011;71201;47.064;15.448;2024-02-26T13:33:29;4.07;;;1.00;;
80315;SDS011;71201;47.064;15.448;2024-02-26T13:35:55;3.75;;;0.80;;
80315;SDS011;71201;47.064;15.448;2024-02-26T13:38:21;4.97;;;0.90;;
80315;SDS011;71201;47.064;15.448;2024-02-26T13:40:47;4.05;;;0.80;;
80315;SDS011;71201;47.064;15.448;2024-02-26T13:43:12;2.38;;;0.82;;
80315;SDS011;71201;47.064;15.448;2024-02-26T13:45:38;4.25;;;0.63;;
80315;SDS011;71201;47.064;15.448;2024-02-26T13:48:04;3.92;;;0.73;;
80315;SDS011;71201;47.064;15.448;2024-02-26T13:50:29;3.60;;;0.90;;
80315;SDS011;71201;47.064;15.448;2024-02-26T13:52:54;4.23;;;0.80;;
80315;SDS011;71201;47.064;15.448;2024-02-26T13:55:21;4.85;;;0.93;;
80315;SDS011;71201;47.064;15.448;2024-02-26T13:57:48;1.90;;;0.60;;
80315;SDS011;71201;47.064;15.448;2024-02-26T14:00:14;2.22;;;0.70;;
80315;SDS011;71201;47.064;15.448;2024-02-26T14:02:39;1.80;;;0.70;;
80315;SDS011;71201;47.064;15.448;2024-02-26T14:05:05;2.17;;;0.57;;
80315;SDS011;71201;47.064;15.448;2024-02-26T14:07:30;2.78;;;0.98;;
80315;SDS011;71201;47.064;15.448;2024-02-26T14:09:57;2.95;;;0.80;;
80315;SDS011;71201;47.064;15.448;2024-02-26T14:12:22;3.13;;;0.75;;
80315;SDS011;71201;47.064;15.448;2024-02-26T14:14:48;2.63;;;0.80;;
80315;SDS011;71201;47.064;15.448;2024-02-26T14:17:13;3.33;;;1.10;;
80315;SDS011;71201;47.064;15.448;2024-02-26T14:19:39;2.72;;;0.90;;
80315;SDS011;71201;47.064;15.448;2024-02-26T14:22:08;3.17;;;1.00;;
80315;SDS011;71201;47.064;15.448;2024-02-26T14:24:33;2.23;;;0.63;;
80315;SDS011;71201;47.064;15.448;2024-02-26T14:26:59;3.42;;;0.95;;
80315;SDS011;71201;47.064;15.448;2024-02-26T14:29:24;2.33;;;0.60;;
80315;SDS011;71201;47.064;15.448;2024-02-26T14:31:49;2.20;;;0.80;;
80315;SDS011;71201;47.064;15.448;2024-02-26T14:34:15;3.22;;;0.88;;
80315;SDS011;71201;47.064;15.448;2024-02-26T14:36:42;2.58;;;0.63;;
80315;SDS011;71201;47.064;15.448;2024-02-26T14:39:07;1.87;;;0.73;;
80315;SDS011;71201;47.064;15.448;2024-02-26T14:41:36;2.85;;;0.73;;
80315;SDS011;71201;47.064;15.448;2024-02-26T14:44:01;3.22;;;0.60;;
80315;SDS011;71201;47.064;15.448;2024-02-26T14:46:26;1.35;;;0.45;;
80315;SDS011;71201;47.064;15.448;2024-02-26T14:48:52;1.98;;;0.57;;
80315;SDS011;71201;47.064;15.448;2024-02-26T14:51:17;2.78;;;0.75;;
80315;SDS011;71201;47.064;15.448;2024-02-26T14:53:43;0.80;;;0.30;;
80315;SDS011;71201;47.064;15.448;2024-02-26T14:56:08;1.77;;;0.47;;
80315;SDS011;71201;47.064;15.448;2024-02-26T14:58:34;3.13;;;0.55;;
80315;SDS011;71201;47.064;15.448;2024-02-26T15:00:59;2.23;;;0.60;;
80315;SDS011;71201;47.064;15.448;2024-02-26T15:03:25;4.23;;;0.60;;
80315;SDS011;71201;47.064;15.448;2024-02-26T15:05:50;2.27;;;0.60;;
80315;SDS011;71201;47.064;15.448;2024-02-26T15:08:15;2.37;;;0.60;;
80315;SDS011;71201;47.064;15.448;2024-02-26T15:10:41;1.40;;;0.40;;
80315;SDS011;71201;47.064;15.448;2024-02-26T15:13:13;1.08;;;0.52;;
80315;SDS011;71201;47.064;15.448;2024-02-26T15:15:38;1.17;;;0.40;;
80315;SDS011;71201;47.064;15.448;2024-02-26T15:18:04;2.35;;;0.50;;
80315;SDS011;71201;47.064;15.448;2024-02-26T15:20:29;2.27;;;0.40;;
80315;SDS011;71201;47.064;15.448;2024-02-26T15:22:55;2.47;;;0.60;;
80315;SDS011;71201;47.064;15.448;2024-02-26T15:25:20;2.03;;;0.70;;
80315;SDS011;71201;47.064;15.448;2024-02-26T15:27:46;1.58;;;0.55;;
80315;SDS011;71201;47.064;15.448;2024-02-26T15:30:11;4.03;;;0.60;;
80315;SDS011;71201;47.064;15.448;2024-02-26T15:32:36;1.42;;;0.65;;
80315;SDS011;71201;47.064;15.448;2024-02-26T15:35:02;2.42;;;0.63;;
80315;SDS011;71201;47.064;15.448;2024-02-26T15:37:27;3.90;;;0.98;;
80315;SDS011;71201;47.064;15.448;2024-02-26T15:39:53;2.55;;;0.75;;
80315;SDS011;71201;47.064;15.448;2024-02-26T15:42:18;2.47;;;0.85;;
80315;SDS011;71201;47.064;15.448;2024-02-26T15:44:43;6.63;;;1.43;;
80315;SDS011;71201;47.064;15.448;2024-02-26T15:47:08;4.70;;;1.20;;
80315;SDS011;71201;47.064;15.448;2024-02-26T15:49:34;4.20;;;0.90;;
80315;SDS011;71201;47.064;15.448;2024-02-26T15:51:59;2.60;;;0.60;;
80315;SDS011;71201;47.064;15.448;2024-02-26T15:54:24;3.95;;;0.60;;
80315;SDS011;71201;47.064;15.448;2024-02-26T15:56:50;1.98;;;0.73;;
80315;SDS011;71201;47.064;15.448;2024-02-26T15:59:17;2.40;;;0.80;;
80315;SDS011;71201;47.064;15.448;2024-02-26T16:01:42;1.60;;;0.68;;
80315;SDS011;71201;47.064;15.448;2024-02-26T16:04:07;4.10;;;0.90;;
80315;SDS011;71201;47.064;15.448;2024-02-26T16:06:34;2.30;;;0.68;;
80315;SDS011;71201;47.064;15.448;2024-02-26T16:09:01;3.00;;;0.80;;
80315;SDS011;71201;47.064;15.448;2024-02-26T16:11:26;2.30;;;0.65;;
80315;SDS011;71201;47.064;15.448;2024-02-26T16:13:53;2.05;;;0.70;;
80315;SDS011;71201;47.064;15.448;2024-02-26T16:16:20;5.20;;;0.90;;
80315;SDS011;71201;47.064;15.448;2024-02-26T16:18:48;1.80;;;0.63;;
80315;SDS011;71201;47.064;15.448;2024-02-26T16:21:14;6.80;;;0.80;;
80315;SDS011;71201;47.064;15.448;2024-02-26T16:23:39;3.10;;;0.70;;
80315;SDS011;71201;47.064;15.448;2024-02-26T16:26:05;6.70;;;1.05;;
80315;SDS011;71201;47.064;15.448;2024-02-26T16:28:30;3.58;;;1.00;;
80315;SDS011;71201;47.064;15.448;2024-02-26T16:30:56;4.17;;;1.20;;
80315;SDS011;71201;47.064;15.448;2024-02-26T16:33:21;2.80;;;1.00;;
80315;SDS011;71201;47.064;15.448;2024-02-26T16:35:47;1.88;;;0.70;;
80315;SDS011;71201;47.064;15.448;2024-02-26T16:38:13;2.35;;;0.90;;
80315;SDS011;71201;47.064;15.448;2024-02-26T16:40:40;3.60;;;0.75;;
80315;SDS011;71201;47.064;15.448;2024-02-26T16:43:05;2.30;;;0.70;;
80315;SDS011;71201;47.064;15.448;2024-02-26T16:45:31;5.75;;;0.93;;
80315;SDS011;71201;47.064;15.448;2024-02-26T16:47:57;3.67;;;0.80;;
80315;SDS011;71201;47.064;15.448;2024-02-26T16:50:22;4.40;;;1.00;;
80315;SDS011;71201;47.064;15.448;2024-02-26T16:52:47;2.50;;;0.80;;
80315;SDS011;71201;47.064;15.448;2024-02-26T16:55:13;2.08;;;0.95;;
80315;SDS011;71201;47.064;15.448;2024-02-26T16:57:38;2.60;;;0.88;;
80315;SDS011;71201;47.064;15.448;2024-02-26T17:00:05;4.97;;;1.02;;
80315;SDS011;71201;47.064;15.448;2024-02-26T17:02:32;4.97;;;1.00;;
80315;SDS011;71201;47.064;15.448;2024-02-26T17:04:57;3.97;;;1.23;;
80315;SDS011;71201;47.064;15.448;2024-02-26T17:07:23;3.88;;;0.90;;
80315;SDS011;71201;47.064;15.448;2024-02-26T17:09:48;2.17;;;0.80;;
80315;SDS011;71201;47.064;15.448;2024-02-26T17:12:13;2.47;;;1.10;;
80315;SDS011;71201;47.064;15.448;2024-02-26T17:14:40;3.95;;;1.33;;
80315;SDS011;71201;47.064;15.448;2024-02-26T17:17:05;3.85;;;1.15;;
80315;SDS011;71201;47.064;15.448;2024-02-26T17:19:32;3.47;;;1.20;;
80315;SDS011;71201;47.064;15.448;2024-02-26T17:21:57;4.70;;;1.55;;
80315;SDS011;71201;47.064;15.448;2024-02-26T17:24:22;5.03;;;1.50;;
80315;SDS011;71201;47.064;15.448;2024-02-26T17:26:48;3.70;;;1.20;;
80315;SDS011;71201;47.064;15.448;2024-02-26T17:29:13;3.73;;;1.20;;
80315;SDS011;71201;47.064;15.448;2024-02-26T17:31:40;4.25;;;1.48;;
80315;SDS011;71201;47.064;15.448;2024-02-26T17:34:08;5.53;;;1.65;;
80315;SDS011;71201;47.064;15.448;2024-02-26T17:36:33;4.97;;;1.65;;
80315;SDS011;71201;47.064;15.448;2024-02-26T17:38:59;4.40;;;1.30;;
80315;SDS011;71201;47.064;15.448;2024-02-26T17:41:24;5.65;;;1.55;;
80315;SDS011;71201;47.064;15.448;2024-02-26T17:43:50;11.57;;;7.15;;
80315;SDS011;71201;47.064;15.448;2024-02-26T17:46:15;9.20;;;5.40;;
80315;SDS011;71201;47.064;15.448;2024-02-26T17:48:40;10.82;;;5.75;;
80315;SDS011;71201;47.064;15.448;2024-02-26T17:51:09;6.00;;;3.20;;